createdAt,value
2019-01-26T00:00:51.176Z,59.75
2019-01-26T00:03:22.756Z,58.86
2019-01-26T00:05:53.931Z,58.94
2019-01-26T00:08:25.121Z,59.06
2019-01-26T00:10:56.290Z,58.65
2019-01-26T00:13:27.575Z,58.35
2019-01-26T00:15:58.788Z,58.64
2019-01-26T00:18:30.988Z,57.86
2019-01-26T00:21:02.591Z,57.01
2019-01-26T00:23:33.826Z,56.90
2019-01-26T00:26:04.975Z,56.24
2019-01-26T00:28:36.078Z,55.20
2019-01-26T00:31:07.398Z,54.82
2019-01-26T00:33:43.080Z,54.45
2019-01-26T00:36:11.526Z,54.44
2019-01-26T00:38:42.620Z,54.10
2019-01-26T00:41:13.734Z,54.82
2019-01-26T00:43:44.778Z,54.55
2019-01-26T00:46:15.942Z,54.72
2019-01-26T00:48:46.968Z,54.79
2019-01-26T00:51:18.110Z,54.64
2019-01-26T00:53:49.254Z,54.77
2019-01-26T00:56:20.291Z,54.92
2019-01-26T00:58:51.503Z,54.82
2019-01-26T01:01:22.803Z,55.25
2019-01-26T01:03:53.958Z,55.08
2019-01-26T01:06:26.078Z,55.02
2019-01-26T01:08:57.432Z,55.02
2019-01-26T01:11:28.559Z,54.69
2019-01-26T01:13:59.779Z,54.95
2019-01-26T01:16:35.860Z,54.85
2019-01-26T01:19:04.933Z,54.53
2019-01-26T01:21:36.257Z,54.44
2019-01-26T01:24:07.408Z,54.12
2019-01-26T01:26:38.472Z,54.01
2019-01-26T01:29:09.702Z,53.46
2019-01-26T01:31:40.769Z,53.27
2019-01-26T01:34:11.967Z,53.22
2019-01-26T01:36:42.965Z,53.28
2019-01-26T01:39:13.980Z,53.32
2019-01-26T01:41:45.043Z,53.31
2019-01-26T01:44:16.210Z,53.40
2019-01-26T01:46:47.255Z,53.17
2019-01-26T01:49:18.338Z,53.32
2019-01-26T01:51:49.480Z,53.53
2019-01-26T01:54:20.688Z,53.82
2019-01-26T01:56:51.885Z,53.30
2019-01-26T01:59:22.967Z,53.40
2019-01-26T02:01:54.049Z,53.28
2019-01-26T02:04:25.322Z,53.51
2019-01-26T02:06:56.460Z,53.39
2019-01-26T02:09:28.464Z,53.34
2019-01-26T02:11:59.608Z,53.22
2019-01-26T02:14:30.826Z,52.98
2019-01-26T02:17:02.032Z,53.20
2019-01-26T02:19:33.191Z,52.43
2019-01-26T02:22:04.409Z,52.82
2019-01-26T02:24:36.571Z,52.42
2019-01-26T02:27:07.744Z,52.66
2019-01-26T02:29:38.860Z,52.47
2019-01-26T02:32:09.958Z,52.19
2019-01-26T02:34:41.162Z,52.47
2019-01-26T02:37:12.252Z,51.43
2019-01-26T02:39:43.348Z,51.75
2019-01-26T02:42:14.437Z,51.57
2019-01-26T02:44:45.451Z,51.77
2019-01-26T02:47:16.645Z,51.66
2019-01-26T02:49:47.770Z,51.48
2019-01-26T02:52:18.875Z,51.51
2019-01-26T02:54:51.056Z,51.87
2019-01-26T02:57:22.283Z,51.84
2019-01-26T02:59:53.477Z,51.75
2019-01-26T03:02:24.493Z,51.99
2019-01-26T03:04:55.753Z,52.49
2019-01-26T03:07:26.747Z,51.80
2019-01-26T03:09:58.010Z,51.57
2019-01-26T03:12:29.145Z,51.03
2019-01-26T03:15:00.526Z,51.07
2019-01-26T03:17:31.663Z,51.09
2019-01-26T03:20:02.932Z,51.25
2019-01-26T03:22:35.143Z,51.40
2019-01-26T03:25:07.096Z,51.65
2019-01-26T03:27:38.240Z,51.48
2019-01-26T03:30:15.595Z,51.72
2019-01-26T03:32:46.748Z,51.90
2019-01-26T03:35:18.028Z,52.24
2019-01-26T03:37:49.242Z,51.85
2019-01-26T03:40:21.670Z,52.30
2019-01-26T03:42:52.831Z,52.64
2019-01-26T03:45:24.045Z,53.43
2019-01-26T03:47:55.180Z,53.71
2019-01-26T03:50:26.252Z,54.56
2019-01-26T03:52:57.407Z,55.02
2019-01-26T03:55:28.624Z,55.90
2019-01-26T03:57:59.985Z,56.53
2019-01-26T04:00:31.134Z,57.37
2019-01-26T04:03:02.377Z,58.06
2019-01-26T04:05:33.626Z,59.06
2019-01-26T04:08:05.975Z,59.86
2019-01-26T04:10:37.146Z,61.26
2019-01-26T04:13:08.292Z,62.28
2019-01-26T04:15:39.785Z,62.50
2019-01-26T04:18:11.032Z,63.43
2019-01-26T04:20:42.264Z,64.76
2019-01-26T04:23:13.356Z,65.60
2019-01-26T04:25:44.573Z,66.06
2019-01-26T04:28:16.242Z,66.14
2019-01-26T04:30:47.423Z,66.81
2019-01-26T04:33:18.500Z,67.04
2019-01-26T04:35:49.614Z,67.29
2019-01-26T04:38:20.763Z,67.70
2019-01-26T04:40:51.913Z,67.16
2019-01-26T04:43:23.473Z,67.43
2019-01-26T04:45:54.668Z,68.23
2019-01-26T04:48:25.879Z,69.14
2019-01-26T04:50:57.411Z,70.09
2019-01-26T04:53:28.633Z,70.07
2019-01-26T04:55:59.780Z,70.57
2019-01-26T04:58:30.874Z,71.54
2019-01-26T05:01:02.202Z,72.45
2019-01-26T05:03:33.387Z,72.66
2019-01-26T05:06:04.657Z,74.06
2019-01-26T05:08:35.865Z,75.32
2019-01-26T05:11:07.033Z,76.07
2019-01-26T05:13:38.225Z,76.17
2019-01-26T05:16:09.493Z,76.59
2019-01-26T05:18:41.162Z,77.30
2019-01-26T05:21:12.710Z,77.91
2019-01-26T05:23:43.851Z,78.38
2019-01-26T05:26:15.485Z,78.77
2019-01-26T05:28:47.918Z,79.33
2019-01-26T05:31:19.062Z,80.05
2019-01-26T05:33:50.432Z,80.44
2019-01-26T05:36:21.578Z,80.63
2019-01-26T05:38:54.293Z,80.94
2019-01-26T05:41:27.349Z,81.61
2019-01-26T05:43:58.356Z,81.43
2019-01-26T05:46:30.164Z,81.75
2019-01-26T05:49:01.228Z,82.01
2019-01-26T05:51:32.465Z,82.15
2019-01-26T05:54:03.784Z,82.48
2019-01-26T05:56:35.027Z,82.73
2019-01-26T05:59:06.677Z,83.03
2019-01-26T06:01:38.995Z,83.06
2019-01-26T06:04:10.145Z,83.03
2019-01-26T06:06:41.360Z,82.89
2019-01-26T06:09:12.574Z,82.60
2019-01-26T06:11:43.723Z,82.00
2019-01-26T06:14:14.731Z,81.31
2019-01-26T06:16:46.085Z,81.24
2019-01-26T06:19:17.047Z,80.94
2019-01-26T06:21:48.129Z,81.21
2019-01-26T06:24:19.449Z,81.31
2019-01-26T06:26:52.192Z,81.46
2019-01-26T06:29:23.500Z,81.75
2019-01-26T06:31:54.714Z,81.20
2019-01-26T06:34:26.952Z,81.03
2019-01-26T06:36:58.244Z,81.04
2019-01-26T06:39:29.561Z,81.08
2019-01-26T06:42:00.626Z,81.11
2019-01-26T06:44:31.814Z,81.07
2019-01-26T06:47:03.031Z,81.05
2019-01-26T06:49:34.292Z,80.98
2019-01-26T06:52:05.958Z,81.04
2019-01-26T06:54:37.083Z,80.84
2019-01-26T06:57:08.208Z,80.43
2019-01-26T06:59:39.507Z,80.37
2019-01-26T07:02:10.763Z,80.19
2019-01-26T07:05:14.062Z,80.03
2019-01-26T07:07:45.252Z,79.98
2019-01-26T07:10:16.375Z,79.96
2019-01-26T07:12:47.591Z,79.78
2019-01-26T07:15:19.637Z,79.75
2019-01-26T07:17:52.069Z,79.61
2019-01-26T07:20:23.362Z,79.09
2019-01-26T07:22:54.459Z,79.03
2019-01-26T07:25:25.665Z,78.91
2019-01-26T07:27:56.747Z,78.44
2019-01-26T07:30:27.997Z,78.43
2019-01-26T07:32:59.080Z,78.42
2019-01-26T07:35:30.219Z,78.29
2019-01-26T07:38:01.334Z,78.37
2019-01-26T07:40:32.559Z,78.27
2019-01-26T07:43:03.676Z,78.25
2019-01-26T07:45:34.839Z,78.90
2019-01-26T07:48:05.994Z,79.05
2019-01-26T07:50:37.051Z,79.21
2019-01-26T07:53:08.243Z,79.17
2019-01-26T07:55:39.736Z,79.19
2019-01-26T07:58:10.932Z,79.20
2019-01-26T08:00:42.108Z,79.29
2019-01-26T08:03:13.257Z,79.35
2019-01-26T08:05:44.440Z,79.40
2019-01-26T08:08:15.800Z,79.21
2019-01-26T08:10:47.064Z,79.21
2019-01-26T08:13:18.238Z,79.23
2019-01-26T08:15:49.291Z,79.12
2019-01-26T08:18:24.260Z,79.06
2019-01-26T08:20:53.316Z,79.14
2019-01-26T08:23:24.493Z,79.39
2019-01-26T08:25:55.628Z,79.59
2019-01-26T08:28:26.780Z,79.23
2019-01-26T08:30:57.980Z,79.30
2019-01-26T08:33:29.129Z,79.40
2019-01-26T08:36:00.266Z,79.45
2019-01-26T08:38:31.579Z,79.66
2019-01-26T08:41:02.703Z,79.48
2019-01-26T08:43:34.771Z,79.61
2019-01-26T08:46:06.015Z,79.83
2019-01-26T08:48:37.228Z,79.76
2019-01-26T08:51:08.498Z,79.90
2019-01-26T08:53:39.704Z,80.03
2019-01-26T08:56:10.918Z,80.10
2019-01-26T08:58:42.146Z,79.83
2019-01-26T09:01:13.439Z,80.21
2019-01-26T09:04:00.552Z,80.41
2019-01-26T09:06:37.687Z,80.59
2019-01-26T09:09:11.527Z,80.32
2019-01-26T09:11:42.690Z,80.62
2019-01-26T09:14:13.834Z,80.69
2019-01-26T09:16:45.027Z,80.60
2019-01-26T09:19:17.692Z,80.74
2019-01-26T09:21:48.922Z,80.50
2019-01-26T09:24:20.028Z,80.62
2019-01-26T09:26:51.136Z,80.61
2019-01-26T09:29:22.382Z,80.29
2019-01-26T09:31:53.562Z,80.95
2019-01-26T09:34:24.754Z,81.00
2019-01-26T09:36:55.866Z,81.05
2019-01-26T09:39:27.292Z,81.28
2019-01-26T09:41:58.482Z,81.27
2019-01-26T09:44:29.796Z,81.31
2019-01-26T09:47:00.951Z,81.19
2019-01-26T09:49:32.032Z,81.42
2019-01-26T09:52:04.354Z,81.35
2019-01-26T09:54:35.576Z,81.71
2019-01-26T09:57:06.883Z,81.87
2019-01-26T09:59:37.878Z,81.85
2019-01-26T10:02:09.045Z,81.81
2019-01-26T10:04:40.158Z,82.15
2019-01-26T10:07:11.283Z,82.12
2019-01-26T10:09:42.360Z,82.17
2019-01-26T10:12:15.019Z,82.27
2019-01-26T10:14:46.205Z,82.15
2019-01-26T10:17:17.265Z,82.26
2019-01-26T10:19:48.426Z,82.27
2019-01-26T10:22:19.584Z,82.17
2019-01-26T10:24:50.687Z,81.93
2019-01-26T10:27:21.779Z,81.77
2019-01-26T10:29:55.804Z,81.45
2019-01-26T10:32:27.112Z,81.14
2019-01-26T10:34:58.161Z,80.82
2019-01-26T10:37:30.191Z,80.82
2019-01-26T10:40:01.767Z,80.72
2019-01-26T10:42:34.619Z,80.26
2019-01-26T10:45:07.240Z,80.67
2019-01-26T10:47:39.427Z,81.55
2019-01-26T10:50:10.590Z,81.90
2019-01-26T10:52:41.661Z,81.82
2019-01-26T10:55:12.901Z,81.56
2019-01-26T10:57:44.033Z,81.54
2019-01-26T11:00:16.409Z,81.46
2019-01-26T11:02:47.592Z,81.44
2019-01-26T11:05:19.454Z,81.53
2019-01-26T11:07:50.546Z,81.57
2019-01-26T11:10:21.702Z,81.47
2019-01-26T11:12:52.856Z,81.46
2019-01-26T11:15:24.021Z,81.24
2019-01-26T11:17:55.219Z,81.33
2019-01-26T11:20:26.403Z,80.79
2019-01-26T11:22:57.680Z,80.87
2019-01-26T11:25:28.915Z,80.79
2019-01-26T11:28:00.125Z,80.75
2019-01-26T11:30:32.357Z,80.37
2019-01-26T11:33:04.553Z,79.50
2019-01-26T11:35:35.647Z,78.84
2019-01-26T11:38:06.976Z,79.25
2019-01-26T11:40:38.285Z,79.88
2019-01-26T11:43:09.472Z,78.73
2019-01-26T11:46:08.405Z,77.70
2019-01-26T11:48:43.048Z,77.49
2019-01-26T11:51:22.576Z,77.38
2019-01-26T11:53:53.715Z,77.66
2019-01-26T11:56:35.496Z,77.56
2019-01-26T11:59:06.630Z,76.71
2019-01-26T12:01:52.047Z,76.32
2019-01-26T12:04:36.907Z,76.49
2019-01-26T12:07:10.826Z,76.93
2019-01-26T12:09:43.922Z,76.26
2019-01-26T12:12:16.220Z,76.77
2019-01-26T12:14:47.289Z,76.81
2019-01-26T12:17:18.413Z,76.70
2019-01-26T12:19:49.626Z,76.84
2019-01-26T12:22:20.868Z,77.07
2019-01-26T12:24:53.011Z,77.14
2019-01-26T12:27:24.213Z,75.95
2019-01-26T12:29:55.346Z,76.14
2019-01-26T12:32:26.535Z,75.61
2019-01-26T12:34:57.611Z,75.32
2019-01-26T12:37:28.800Z,74.80
2019-01-26T12:40:00.409Z,73.82
2019-01-26T12:42:31.559Z,72.13
2019-01-26T12:45:03.881Z,71.89
2019-01-26T12:47:35.177Z,70.36
2019-01-26T12:50:07.769Z,71.27
2019-01-26T12:52:39.003Z,72.47
2019-01-26T12:55:11.794Z,72.40
2019-01-26T12:57:44.186Z,72.57
2019-01-26T13:00:17.978Z,73.08
2019-01-26T13:02:49.555Z,72.92
2019-01-26T13:05:21.862Z,73.43
2019-01-26T13:07:53.000Z,73.65
2019-01-26T13:10:27.743Z,73.39
2019-01-26T13:12:58.877Z,73.44
2019-01-26T13:15:30.133Z,73.22
2019-01-26T13:18:01.188Z,72.98
2019-01-26T13:20:32.445Z,72.69
2019-01-26T13:23:03.647Z,72.80
2019-01-26T13:25:35.995Z,72.65
2019-01-26T13:28:07.231Z,72.73
2019-01-26T13:30:38.354Z,72.45
2019-01-26T13:33:09.498Z,72.90
2019-01-26T13:35:40.622Z,72.60
2019-01-26T13:38:11.835Z,72.28
2019-01-26T13:40:42.918Z,72.57
2019-01-26T13:43:14.298Z,72.47
2019-01-26T13:45:45.707Z,72.24
2019-01-26T13:48:16.891Z,72.10
2019-01-26T13:50:48.310Z,72.37
2019-01-26T13:53:19.983Z,71.72
2019-01-26T13:55:50.975Z,72.54
2019-01-26T13:58:22.071Z,72.70
2019-01-26T14:00:53.165Z,73.03
2019-01-26T14:03:24.294Z,72.80
2019-01-26T14:05:55.643Z,73.03
2019-01-26T14:08:26.787Z,72.99
2019-01-26T14:10:58.039Z,72.54
2019-01-26T14:13:29.040Z,72.71
2019-01-26T14:16:00.187Z,72.78
2019-01-26T14:18:31.335Z,73.10
2019-01-26T14:21:02.505Z,73.12
2019-01-26T14:23:33.607Z,73.09
2019-01-26T14:26:04.937Z,73.08
2019-01-26T14:28:36.096Z,72.46
2019-01-26T14:31:08.497Z,72.80
2019-01-26T14:33:39.601Z,73.14
2019-01-26T14:36:10.780Z,73.07
2019-01-26T14:38:41.863Z,72.88
2019-01-26T14:41:13.095Z,73.06
2019-01-26T14:43:44.348Z,72.73
2019-01-26T14:46:15.498Z,72.79
2019-01-26T14:48:46.773Z,72.68
2019-01-26T14:51:18.295Z,72.12
2019-01-26T14:53:49.376Z,72.66
2019-01-26T14:56:20.455Z,72.23
2019-01-26T14:58:51.597Z,72.08
2019-01-26T15:01:23.104Z,72.06
2019-01-26T15:03:54.239Z,72.55
2019-01-26T15:06:25.490Z,72.63
2019-01-26T15:08:56.694Z,72.53
2019-01-26T15:11:27.822Z,72.21
2019-01-26T15:13:59.605Z,72.63
2019-01-26T15:16:31.023Z,72.57
2019-01-26T15:19:02.074Z,72.40
2019-01-26T15:21:33.164Z,72.58
2019-01-26T15:24:04.426Z,72.59
2019-01-26T15:26:36.811Z,72.74
2019-01-26T15:29:07.898Z,72.70
2019-01-26T15:31:39.890Z,72.97
2019-01-26T15:34:10.951Z,73.13
2019-01-26T15:36:42.097Z,73.20
2019-01-26T15:39:13.081Z,73.20
2019-01-26T15:41:44.198Z,72.96
2019-01-26T15:44:15.286Z,73.49
2019-01-26T15:46:46.328Z,73.42
2019-01-26T15:49:18.654Z,73.38
2019-01-26T15:51:49.796Z,73.82
2019-01-26T15:54:20.883Z,73.30
2019-01-26T15:56:51.963Z,73.34
2019-01-26T15:59:23.110Z,74.25
2019-01-26T16:01:54.252Z,74.38
2019-01-26T16:04:25.415Z,74.16
2019-01-26T16:06:56.603Z,73.94
2019-01-26T16:09:27.723Z,73.87
2019-01-26T16:11:58.812Z,73.57
2019-01-26T16:14:29.912Z,74.06
2019-01-26T16:17:01.109Z,74.17
2019-01-26T16:19:32.710Z,74.43
2019-01-26T16:22:04.003Z,74.92
2019-01-26T16:24:35.144Z,74.86
2019-01-26T16:27:06.374Z,74.27
2019-01-26T16:29:37.672Z,73.82
2019-01-26T16:32:08.878Z,74.14
2019-01-26T16:34:40.023Z,74.51
2019-01-26T16:37:11.120Z,74.21
2019-01-26T16:39:42.098Z,74.42
2019-01-26T16:42:13.593Z,74.68
2019-01-26T16:44:44.644Z,74.75
2019-01-26T16:47:15.746Z,74.80
2019-01-26T16:49:46.879Z,74.98
2019-01-26T16:52:18.061Z,75.00
2019-01-26T16:54:49.196Z,75.12
2019-01-26T16:57:20.191Z,75.28
2019-01-26T16:59:51.346Z,74.96
2019-01-26T17:02:22.518Z,74.27
2019-01-26T17:04:53.670Z,74.80
2019-01-26T17:07:24.975Z,74.55
2019-01-26T17:09:56.018Z,74.64
2019-01-26T17:12:27.117Z,74.54
2019-01-26T17:14:58.095Z,74.57
2019-01-26T17:17:29.254Z,74.74
2019-01-26T17:20:00.366Z,75.11
2019-01-26T17:22:31.514Z,75.14
2019-01-26T17:25:02.660Z,75.08
2019-01-26T17:27:33.758Z,75.41
2019-01-26T17:30:07.432Z,75.47
2019-01-26T17:32:38.571Z,74.48
2019-01-26T17:35:10.098Z,74.08
2019-01-26T17:37:41.264Z,74.22
2019-01-26T17:40:15.258Z,74.37
2019-01-26T17:42:46.387Z,74.56
2019-01-26T17:45:18.184Z,74.45
2019-01-26T17:47:49.389Z,74.33
2019-01-26T17:50:22.186Z,74.39
2019-01-26T17:52:53.564Z,74.42
2019-01-26T17:55:24.688Z,73.90
2019-01-26T17:57:55.886Z,73.57
2019-01-26T18:00:33.470Z,73.94
2019-01-26T18:03:04.782Z,73.79
2019-01-26T18:05:35.844Z,73.92
2019-01-26T18:08:07.042Z,73.90
2019-01-26T18:10:38.178Z,73.95
2019-01-26T18:13:09.348Z,73.88
2019-01-26T18:15:40.583Z,73.93
2019-01-26T18:18:11.728Z,73.45
2019-01-26T18:20:48.956Z,73.83
2019-01-26T18:23:17.575Z,73.66
2019-01-26T18:25:48.821Z,73.46
2019-01-26T18:28:19.970Z,73.46
2019-01-26T18:30:51.099Z,73.58
2019-01-26T18:33:22.188Z,73.74
2019-01-26T18:35:53.371Z,73.87
2019-01-26T18:38:24.505Z,74.03
2019-01-26T18:40:55.620Z,73.99
2019-01-26T18:43:26.750Z,73.83
2019-01-26T18:45:57.964Z,74.14
2019-01-26T18:48:29.187Z,74.33
2019-01-26T18:51:00.303Z,74.53
2019-01-26T18:53:31.627Z,74.45
2019-01-26T18:56:02.690Z,74.65
2019-01-26T18:58:33.938Z,74.42
2019-01-26T19:01:05.662Z,74.20
2019-01-26T19:04:01.217Z,74.18
2019-01-26T19:06:32.338Z,74.15
2019-01-26T19:09:05.476Z,73.60
2019-01-26T19:11:36.977Z,73.47
2019-01-26T19:14:08.217Z,73.64
2019-01-26T19:16:39.326Z,73.72
2019-01-26T19:19:10.415Z,73.82
2019-01-26T19:21:41.554Z,74.42
2019-01-26T19:24:12.719Z,73.90
2019-01-26T19:26:43.783Z,74.25
2019-01-26T19:29:15.022Z,74.17
2019-01-26T19:31:46.148Z,73.89
2019-01-26T19:34:17.223Z,73.86
2019-01-26T19:36:48.436Z,74.01
2019-01-26T19:39:19.579Z,73.75
2019-01-26T19:41:50.650Z,73.97
2019-01-26T19:44:21.946Z,73.65
2019-01-26T19:46:53.053Z,73.36
2019-01-26T19:49:24.141Z,73.37
2019-01-26T19:51:55.358Z,73.43
2019-01-26T19:54:26.501Z,73.57
2019-01-26T19:56:58.567Z,73.37
2019-01-26T19:59:29.744Z,73.07
2019-01-26T20:02:01.247Z,73.12
2019-01-26T20:04:32.352Z,73.55
2019-01-26T20:07:03.589Z,73.60
2019-01-26T20:09:34.732Z,73.04
2019-01-26T20:12:06.184Z,72.73
2019-01-26T20:14:37.322Z,72.78
2019-01-26T20:17:08.656Z,72.18
2019-01-26T20:19:39.801Z,72.14
2019-01-26T20:22:10.987Z,71.83
2019-01-26T20:24:42.063Z,71.77
2019-01-26T20:27:13.215Z,71.85
2019-01-26T20:29:45.426Z,71.62
2019-01-26T20:32:16.561Z,71.71
2019-01-26T20:34:47.722Z,71.64
2019-01-26T20:37:19.063Z,71.91
2019-01-26T20:39:50.152Z,71.30
2019-01-26T20:42:21.343Z,71.36
2019-01-26T20:44:52.704Z,71.43
2019-01-26T20:47:23.842Z,71.14
2019-01-26T20:49:54.897Z,70.88
2019-01-26T20:52:26.202Z,70.91
2019-01-26T20:54:57.264Z,71.17
2019-01-26T20:57:28.379Z,71.15
2019-01-26T20:59:59.521Z,71.15
2019-01-26T21:02:30.749Z,70.99
2019-01-26T21:05:01.813Z,71.04
2019-01-26T21:07:34.077Z,70.46
2019-01-26T21:10:07.979Z,70.46
2019-01-26T21:12:39.027Z,70.37
2019-01-26T21:15:10.305Z,70.55
2019-01-26T21:17:41.450Z,70.78
2019-01-26T21:20:14.799Z,71.13
2019-01-26T21:22:45.846Z,70.86
2019-01-26T21:25:17.075Z,70.96
2019-01-26T21:27:48.336Z,71.26
2019-01-26T21:30:24.813Z,71.61
2019-01-26T21:32:56.752Z,71.55
2019-01-26T21:35:28.080Z,71.08
2019-01-26T21:37:59.200Z,71.85
2019-01-26T21:40:31.927Z,71.64
2019-01-26T21:43:03.140Z,71.71
2019-01-26T21:45:34.274Z,72.01
2019-01-26T21:48:05.718Z,71.71
2019-01-26T21:50:36.865Z,72.11
2019-01-26T21:53:07.990Z,72.21
2019-01-26T21:55:39.072Z,72.50
2019-01-26T21:58:10.194Z,72.65
2019-01-26T22:00:41.462Z,72.99
2019-01-26T22:03:12.652Z,72.99
2019-01-26T22:05:43.791Z,73.14
2019-01-26T22:08:15.311Z,72.89
2019-01-26T22:10:46.423Z,72.88
2019-01-26T22:13:17.812Z,72.91
2019-01-26T22:15:49.059Z,73.40
2019-01-26T22:18:20.270Z,73.22
2019-01-26T22:20:51.507Z,72.46
2019-01-26T22:23:22.687Z,72.93
2019-01-26T22:25:53.835Z,72.75
2019-01-26T22:28:24.999Z,73.01
2019-01-26T22:30:56.326Z,73.16
2019-01-26T22:33:27.486Z,72.89
2019-01-26T22:35:58.969Z,73.05
2019-01-26T22:38:31.057Z,74.20
2019-01-26T22:41:02.389Z,73.59
2019-01-26T22:43:33.441Z,73.19
2019-01-26T22:46:04.986Z,73.42
2019-01-26T22:48:35.985Z,73.54
2019-01-26T22:51:07.357Z,73.72
2019-01-26T22:53:38.749Z,74.33
2019-01-26T22:56:09.965Z,75.10
2019-01-26T22:58:41.192Z,73.88
2019-01-26T23:01:45.618Z,73.43
2019-01-26T23:04:32.449Z,73.48
2019-01-26T23:07:29.763Z,73.58
2019-01-26T23:10:26.488Z,73.82
2019-01-26T23:13:28.273Z,74.23
2019-01-26T23:16:35.624Z,74.15
2019-01-26T23:19:28.008Z,74.30
2019-01-26T23:22:33.793Z,74.21
2019-01-26T23:25:33.982Z,74.65
2019-01-26T23:28:55.673Z,75.36
2019-01-26T23:31:26.738Z,75.75
2019-01-26T23:33:57.964Z,75.65
2019-01-26T23:36:29.077Z,75.25
2019-01-26T23:39:02.489Z,75.08
2019-01-26T23:41:34.513Z,76.01
2019-01-26T23:44:05.712Z,75.04
2019-01-26T23:46:36.964Z,74.79
2019-01-26T23:49:08.113Z,75.16
2019-01-26T23:51:39.481Z,74.86
2019-01-26T23:54:10.603Z,75.88
2019-01-26T23:56:41.805Z,76.03
2019-01-26T23:59:12.922Z,75.01
